createdAt,value
2018-05-03T18:37:24.797Z,20.70
2018-05-03T18:40:05.262Z,20.80
2018-05-03T18:48:07.705Z,57.40
2018-05-03T18:50:48.783Z,58.60
2018-05-03T18:53:29.968Z,57.80
2018-05-03T18:56:10.437Z,57.90
2018-05-03T18:58:50.753Z,58.30
2018-05-03T19:01:31.046Z,58.80
2018-05-03T19:04:11.370Z,60.20
2018-05-03T19:06:51.689Z,62.80
2018-05-03T19:09:32.976Z,64.30
2018-05-03T19:12:14.025Z,64.80
2018-05-03T19:14:55.125Z,64.90
2018-05-03T19:17:36.172Z,66.00
2018-05-03T19:20:16.435Z,66.20
2018-05-03T19:22:57.725Z,66.70
2018-05-03T19:25:41.037Z,68.10
2018-05-03T19:28:21.575Z,68.30
2018-05-03T19:31:02.389Z,68.90
2018-05-03T19:33:43.595Z,70.00
2018-05-03T19:36:30.458Z,69.30
2018-05-03T19:39:10.909Z,69.80
2018-05-03T19:41:52.148Z,70.30
2018-05-03T19:44:33.938Z,70.80
2018-05-03T19:47:14.445Z,70.80
2018-05-03T19:49:56.705Z,70.70
2018-05-03T19:52:47.336Z,70.90
2018-05-03T19:55:30.425Z,71.10
2018-05-03T19:58:10.905Z,72.50
2018-05-03T20:00:51.377Z,71.90
2018-05-03T20:03:31.752Z,72.10
2018-05-03T20:06:12.894Z,72.30
2018-05-03T20:08:54.113Z,72.60
2018-05-03T20:11:35.465Z,71.80
2018-05-03T20:14:16.469Z,71.80
2018-05-03T20:16:58.122Z,71.90
2018-05-03T20:19:40.309Z,72.50
2018-05-03T20:22:20.983Z,73.00
2018-05-03T20:25:02.180Z,73.20
2018-05-03T20:27:43.432Z,73.20
2018-05-03T20:30:27.056Z,73.00
2018-05-03T20:33:08.345Z,73.40
2018-05-03T20:35:48.684Z,73.80
2018-05-03T20:38:29.054Z,74.00
2018-05-03T20:41:10.190Z,73.80
2018-05-03T20:43:50.521Z,73.90
2018-05-03T20:46:31.129Z,73.90
2018-05-03T20:49:11.568Z,74.40
2018-05-03T20:51:51.941Z,73.50
2018-05-03T20:54:33.779Z,73.40
2018-05-03T20:57:14.233Z,73.40
2018-05-03T20:59:56.293Z,73.50
2018-05-03T21:02:36.950Z,73.60
2018-05-03T21:05:17.302Z,73.90
2018-05-03T21:07:57.705Z,74.30
2018-05-03T21:10:38.157Z,74.70
2018-05-03T21:13:20.018Z,74.90
2018-05-03T21:16:00.307Z,75.00
2018-05-03T21:18:40.662Z,75.20
2018-05-03T21:21:21.748Z,75.10
2018-05-03T21:24:02.745Z,75.30
2018-05-03T21:26:43.686Z,75.40
2018-05-03T21:29:24.806Z,75.00
2018-05-03T21:32:05.228Z,74.80
2018-05-03T21:34:45.579Z,74.60
2018-05-03T21:37:43.116Z,74.50
2018-05-03T21:40:27.994Z,74.40
2018-05-03T21:43:09.148Z,74.80
2018-05-03T21:45:49.626Z,74.90
2018-05-03T21:48:29.919Z,74.80
2018-05-03T21:51:10.270Z,74.50
2018-05-03T21:53:52.229Z,74.10
2018-05-03T21:56:33.816Z,74.20
2018-05-03T21:59:14.166Z,74.30
2018-05-03T22:01:55.885Z,74.50
2018-05-03T22:04:36.201Z,74.60
2018-05-03T22:07:16.561Z,74.70
2018-05-03T22:09:57.034Z,75.20
2018-05-03T22:12:37.752Z,75.00
2018-05-03T22:15:18.307Z,75.00
2018-05-03T22:17:58.692Z,74.70
2018-05-03T22:20:39.001Z,75.00
2018-05-03T22:23:19.437Z,75.40
2018-05-03T22:26:09.535Z,75.30
2018-05-03T22:28:50.021Z,75.30
2018-05-03T22:31:30.489Z,75.40
2018-05-03T22:34:11.169Z,75.70
2018-05-03T22:36:51.518Z,75.80
2018-05-03T22:39:31.855Z,75.30
2018-05-03T22:42:12.133Z,74.60
2018-05-03T22:44:52.463Z,74.50
2018-05-03T22:47:33.480Z,74.70
2018-05-03T22:50:13.833Z,75.70
2018-05-03T22:52:54.747Z,75.60
2018-05-03T22:55:35.068Z,76.20
2018-05-03T22:58:15.451Z,76.70
2018-05-03T23:00:56.619Z,76.80
2018-05-03T23:03:37.043Z,76.90
2018-05-03T23:06:17.492Z,77.30
2018-05-03T23:08:58.001Z,77.50
2018-05-03T23:11:38.441Z,77.60
2018-05-03T23:14:19.520Z,77.40
2018-05-03T23:16:59.957Z,77.50
2018-05-03T23:19:41.158Z,77.60
2018-05-03T23:22:21.340Z,77.70
2018-05-03T23:25:02.292Z,77.80
2018-05-03T23:27:42.730Z,78.00
2018-05-03T23:30:22.944Z,77.80
2018-05-03T23:33:03.594Z,77.60
2018-05-03T23:35:44.649Z,77.20
2018-05-03T23:38:25.785Z,77.30
2018-05-03T23:41:06.113Z,77.20
2018-05-03T23:43:46.596Z,76.50
2018-05-03T23:46:27.472Z,76.70
2018-05-03T23:49:07.924Z,76.90
2018-05-03T23:51:48.233Z,77.10
2018-05-03T23:54:29.049Z,77.10
2018-05-03T23:57:09.377Z,77.10
2018-05-03T23:59:49.673Z,76.80
